createdAt,value
2018-07-25T00:01:00.725Z,4.13
2018-07-25T00:03:27.845Z,3.90
2018-07-25T00:05:54.889Z,5.07
2018-07-25T00:08:21.897Z,3.67
2018-07-25T00:10:52.808Z,5.60
2018-07-25T00:13:19.949Z,5.77
2018-07-25T00:15:47.100Z,5.50
2018-07-25T00:18:14.080Z,4.47
2018-07-25T00:20:41.089Z,4.27
2018-07-25T00:23:08.145Z,4.23
2018-07-25T00:25:35.283Z,4.73
2018-07-25T00:28:02.409Z,3.47
2018-07-25T00:30:29.409Z,4.27
2018-07-25T00:32:56.447Z,4.80
2018-07-25T00:35:23.468Z,4.17
2018-07-25T00:37:50.426Z,6.37
2018-07-25T00:40:17.462Z,3.90
2018-07-25T00:42:44.500Z,11.73
2018-07-25T00:45:11.529Z,5.77
2018-07-25T00:47:38.577Z,4.17
2018-07-25T00:50:05.701Z,3.97
2018-07-25T00:52:32.648Z,7.00
2018-07-25T00:54:59.857Z,4.33
2018-07-25T00:57:26.912Z,3.87
2018-07-25T00:59:53.909Z,3.80
2018-07-25T01:02:20.989Z,3.90
2018-07-25T01:04:48.005Z,3.60
2018-07-25T01:07:15.048Z,3.37
2018-07-25T01:09:42.421Z,4.00
2018-07-25T01:12:09.416Z,4.40
2018-07-25T01:14:36.525Z,6.03
2018-07-25T01:17:03.601Z,3.90
2018-07-25T01:19:30.778Z,4.00
2018-07-25T01:21:57.882Z,4.37
2018-07-25T01:24:25.000Z,3.23
2018-07-25T01:26:52.022Z,3.93
2018-07-25T01:29:19.052Z,4.07
2018-07-25T01:31:46.073Z,3.33
2018-07-25T01:34:13.090Z,4.00
2018-07-25T01:36:40.177Z,3.37
2018-07-25T01:39:08.045Z,4.40
2018-07-25T01:41:35.081Z,5.10
2018-07-25T01:44:02.090Z,6.30
2018-07-25T01:46:30.140Z,4.20
2018-07-25T01:48:57.141Z,3.47
2018-07-25T01:51:24.221Z,4.23
2018-07-25T01:53:51.285Z,6.70
2018-07-25T01:56:18.457Z,4.23
2018-07-25T01:58:45.459Z,3.40
2018-07-25T02:01:12.588Z,4.93
2018-07-25T02:03:39.744Z,3.57
2018-07-25T02:06:07.733Z,4.33
2018-07-25T02:08:34.740Z,4.17
2018-07-25T02:11:01.736Z,3.43
2018-07-25T02:13:28.746Z,3.83
2018-07-25T02:15:55.758Z,3.43
2018-07-25T02:18:22.739Z,3.90
2018-07-25T02:20:49.833Z,3.27
2018-07-25T02:23:16.852Z,3.20
2018-07-25T02:25:44.260Z,3.17
2018-07-25T02:28:11.225Z,9.40
2018-07-25T02:30:38.322Z,3.93
2018-07-25T02:33:05.489Z,4.60
2018-07-25T02:35:32.466Z,3.23
2018-07-25T02:37:59.429Z,4.77
2018-07-25T02:40:26.676Z,4.17
2018-07-25T02:42:53.618Z,4.53
2018-07-25T02:45:20.617Z,3.30
2018-07-25T02:47:47.721Z,3.60
2018-07-25T02:50:14.681Z,5.30
2018-07-25T02:52:41.678Z,4.43
2018-07-25T02:55:08.697Z,4.47
2018-07-25T02:57:35.751Z,4.83
2018-07-25T03:00:03.541Z,6.23
2018-07-25T03:02:30.497Z,9.17
2018-07-25T03:04:57.469Z,4.53
2018-07-25T03:07:24.469Z,5.77
2018-07-25T03:09:51.449Z,4.20
2018-07-25T03:12:18.465Z,4.97
2018-07-25T03:14:45.462Z,6.23
2018-07-25T03:17:12.428Z,4.80
2018-07-25T03:19:39.421Z,4.07
2018-07-25T03:22:06.413Z,5.30
2018-07-25T03:24:33.373Z,4.67
2018-07-25T03:27:00.404Z,4.80
2018-07-25T03:29:27.396Z,4.80
2018-07-25T03:31:54.372Z,4.17
2018-07-25T03:34:21.352Z,4.73
2018-07-25T03:36:48.360Z,4.87
2018-07-25T03:39:15.364Z,5.87
2018-07-25T03:41:43.133Z,4.10
2018-07-25T03:44:10.084Z,5.67
2018-07-25T03:46:37.050Z,5.27
2018-07-25T03:49:04.125Z,4.70
2018-07-25T03:51:31.117Z,5.13
2018-07-25T03:53:58.146Z,4.80
2018-07-25T03:56:25.137Z,5.13
2018-07-25T03:58:52.237Z,5.70
2018-07-25T04:01:19.244Z,5.30
2018-07-25T04:03:46.210Z,4.67
2018-07-25T04:06:13.234Z,6.77
2018-07-25T04:08:40.209Z,5.43
2018-07-25T04:11:07.195Z,5.73
2018-07-25T04:13:34.180Z,4.27
2018-07-25T04:16:01.179Z,4.60
2018-07-25T04:18:28.217Z,5.87
2018-07-25T04:20:55.218Z,6.80
2018-07-25T04:23:22.210Z,4.80
2018-07-25T04:25:49.226Z,6.07
2018-07-25T04:28:16.286Z,4.73
2018-07-25T04:30:43.260Z,5.80
2018-07-25T04:33:10.237Z,5.60
2018-07-25T04:35:37.197Z,4.20
2018-07-25T04:38:04.312Z,6.73
2018-07-25T04:40:31.381Z,5.40
2018-07-25T04:42:58.377Z,5.40
2018-07-25T04:45:26.098Z,4.30
2018-07-25T04:47:53.066Z,4.67
2018-07-25T04:50:20.077Z,6.00
2018-07-25T04:52:47.056Z,4.47
2018-07-25T04:55:14.157Z,4.43
2018-07-25T04:57:41.121Z,5.87
2018-07-25T05:00:08.081Z,6.93
2018-07-25T05:02:35.105Z,4.83
2018-07-25T05:05:02.147Z,4.83
2018-07-25T05:07:29.112Z,4.43
2018-07-25T05:09:56.265Z,4.60
2018-07-25T05:12:23.316Z,5.13
2018-07-25T05:14:50.325Z,5.70
2018-07-25T05:17:17.333Z,4.80
2018-07-25T05:19:44.305Z,4.27
2018-07-25T05:22:11.333Z,4.83
2018-07-25T05:24:38.477Z,4.90
2018-07-25T05:27:05.428Z,6.13
2018-07-25T05:29:32.472Z,9.57
2018-07-25T05:31:59.450Z,5.27
2018-07-25T05:34:26.424Z,5.33
2018-07-25T05:36:53.404Z,7.10
2018-07-25T05:39:20.376Z,5.70
2018-07-25T05:41:47.328Z,5.27
2018-07-25T05:44:14.285Z,5.40
2018-07-25T05:46:41.302Z,4.60
2018-07-25T05:49:08.357Z,5.33
2018-07-25T05:51:35.589Z,4.50
2018-07-25T05:54:03.047Z,6.00
2018-07-25T05:56:30.045Z,5.60
2018-07-25T05:58:57.369Z,5.37
2018-07-25T06:01:24.913Z,5.40
2018-07-25T06:03:52.013Z,6.70
2018-07-25T06:06:19.097Z,5.40
2018-07-25T06:08:46.158Z,5.93
2018-07-25T06:11:13.129Z,9.40
2018-07-25T06:13:40.144Z,7.90
2018-07-25T06:16:07.217Z,5.50
2018-07-25T06:18:34.332Z,6.30
2018-07-25T06:21:01.325Z,6.97
2018-07-25T06:23:28.436Z,9.33
2018-07-25T06:25:55.634Z,6.37
2018-07-25T06:28:22.645Z,7.77
2018-07-25T06:30:49.660Z,7.53
2018-07-25T06:33:16.697Z,6.10
2018-07-25T06:35:43.730Z,6.60
2018-07-25T06:38:10.752Z,5.93
2018-07-25T06:40:37.741Z,8.27
2018-07-25T06:43:04.877Z,6.60
2018-07-25T06:45:31.864Z,7.43
2018-07-25T06:47:58.860Z,5.77
2018-07-25T06:50:25.843Z,4.93
2018-07-25T06:52:52.881Z,6.07
2018-07-25T06:55:19.917Z,5.30
2018-07-25T06:57:46.923Z,7.50
2018-07-25T07:00:13.930Z,5.77
2018-07-25T07:02:40.936Z,6.03
2018-07-25T07:05:07.976Z,4.90
2018-07-25T07:07:35.092Z,7.20
2018-07-25T07:10:02.082Z,5.93
2018-07-25T07:12:29.061Z,5.10
2018-07-25T07:14:56.133Z,6.03
2018-07-25T07:17:23.884Z,4.63
2018-07-25T07:19:50.930Z,5.20
2018-07-25T07:22:17.940Z,5.33
2018-07-25T07:24:44.917Z,6.63
2018-07-25T07:27:12.298Z,4.97
2018-07-25T07:29:39.289Z,5.80
2018-07-25T07:32:06.337Z,4.60
2018-07-25T07:34:33.402Z,8.47
2018-07-25T07:37:00.389Z,5.13
2018-07-25T07:39:27.352Z,5.43
2018-07-25T07:41:54.349Z,4.40
2018-07-25T07:44:21.318Z,5.23
2018-07-25T07:46:48.333Z,4.93
2018-07-25T07:49:15.348Z,4.73
2018-07-25T07:51:42.333Z,5.13
2018-07-25T07:54:09.383Z,4.90
2018-07-25T07:56:36.442Z,4.27
2018-07-25T07:59:03.553Z,4.10
2018-07-25T08:01:30.664Z,4.47
2018-07-25T08:03:57.676Z,5.43
2018-07-25T08:06:24.688Z,3.37
2018-07-25T08:08:51.733Z,5.40
2018-07-25T08:11:19.637Z,5.07
2018-07-25T08:13:47.627Z,3.93
2018-07-25T08:16:14.984Z,4.27
2018-07-25T08:18:42.290Z,4.80
2018-07-25T08:21:09.303Z,4.60
2018-07-25T08:23:36.276Z,3.73
2018-07-25T08:26:03.313Z,5.83
2018-07-25T08:28:30.301Z,3.97
2018-07-25T08:30:57.257Z,4.37
2018-07-25T08:33:24.244Z,4.90
2018-07-25T08:35:51.668Z,5.40
2018-07-25T08:38:41.517Z,4.60
2018-07-25T08:41:08.566Z,4.30
2018-07-25T08:43:36.889Z,3.67
2018-07-25T08:46:04.373Z,4.57
2018-07-25T08:48:31.817Z,4.40
2018-07-25T08:50:58.784Z,5.67
2018-07-25T08:53:26.092Z,4.37
2018-07-25T08:55:53.185Z,4.83
2018-07-25T08:58:20.219Z,4.10
2018-07-25T09:00:47.420Z,3.50
2018-07-25T09:03:14.439Z,6.40
2018-07-25T09:05:41.473Z,3.93
2018-07-25T09:08:08.788Z,3.87
2018-07-25T09:10:35.857Z,4.50
2018-07-25T09:13:02.858Z,5.07
2018-07-25T09:15:29.881Z,3.60
2018-07-25T09:17:56.901Z,3.70
2018-07-25T09:20:24.204Z,4.77
2018-07-25T09:22:51.203Z,3.97
2018-07-25T09:25:18.228Z,3.67
2018-07-25T09:27:45.189Z,3.73
2018-07-25T09:30:12.233Z,4.70
2018-07-25T09:32:39.210Z,3.77
2018-07-25T09:35:06.333Z,3.67
2018-07-25T09:37:33.301Z,4.70
2018-07-25T09:40:00.278Z,4.47
2018-07-25T09:42:27.257Z,3.53
2018-07-25T09:44:54.296Z,3.27
2018-07-25T09:47:21.341Z,3.67
2018-07-25T09:49:48.339Z,4.03
2018-07-25T09:52:15.400Z,3.77
2018-07-25T09:54:42.378Z,4.40
2018-07-25T09:57:10.209Z,4.10
2018-07-25T09:59:37.403Z,4.47
2018-07-25T10:02:04.380Z,3.70
2018-07-25T10:04:31.397Z,3.77
2018-07-25T10:06:58.448Z,6.43
2018-07-25T10:09:25.431Z,3.90
2018-07-25T10:11:52.468Z,5.13
2018-07-25T10:14:19.630Z,5.30
2018-07-25T10:16:46.780Z,3.17
2018-07-25T10:19:13.793Z,3.87
2018-07-25T10:21:40.853Z,4.40
2018-07-25T10:24:07.837Z,3.90
2018-07-25T10:26:34.881Z,3.77
2018-07-25T10:29:01.901Z,5.03
2018-07-25T10:31:28.897Z,4.20
2018-07-25T10:33:55.888Z,5.00
2018-07-25T10:36:22.893Z,7.47
2018-07-25T10:38:49.915Z,4.90
2018-07-25T10:41:16.908Z,4.30
2018-07-25T10:43:43.947Z,4.43
2018-07-25T10:46:10.981Z,5.83
2018-07-25T10:48:38.102Z,4.40
2018-07-25T10:51:05.149Z,4.50
2018-07-25T10:53:32.209Z,3.50
2018-07-25T10:55:59.225Z,4.30
2018-07-25T10:58:26.201Z,4.53
2018-07-25T11:00:53.236Z,4.40
2018-07-25T11:03:20.321Z,4.70
2018-07-25T11:05:47.521Z,4.03
2018-07-25T11:08:14.708Z,5.90
2018-07-25T11:10:41.914Z,4.23
2018-07-25T11:13:09.010Z,4.60
2018-07-25T11:15:36.051Z,4.93
2018-07-25T11:18:03.213Z,4.40
2018-07-25T11:20:30.603Z,5.53
2018-07-25T11:22:57.608Z,4.40
2018-07-25T11:25:24.660Z,6.00
2018-07-25T11:27:51.681Z,5.03
2018-07-25T11:30:18.704Z,4.80
2018-07-25T11:32:45.742Z,4.47
2018-07-25T11:35:12.710Z,4.63
2018-07-25T11:37:39.845Z,3.93
2018-07-25T11:40:06.842Z,7.43
2018-07-25T11:42:33.857Z,5.33
2018-07-25T11:45:00.865Z,4.70
2018-07-25T11:47:27.851Z,6.70
2018-07-25T11:49:54.883Z,4.70
2018-07-25T11:52:21.873Z,5.90
2018-07-25T11:54:48.842Z,5.33
2018-07-25T11:57:15.884Z,4.80
2018-07-25T11:59:43.493Z,4.77
2018-07-25T12:02:10.497Z,4.43
2018-07-25T12:04:37.544Z,4.53
2018-07-25T12:07:04.798Z,5.73
2018-07-25T12:09:31.765Z,4.77
2018-07-25T12:11:58.964Z,4.70
2018-07-25T12:14:26.045Z,5.63
2018-07-25T12:16:53.049Z,6.17
2018-07-25T12:19:20.078Z,5.33
2018-07-25T12:21:47.089Z,8.10
2018-07-25T12:24:14.101Z,4.97
2018-07-25T12:26:41.103Z,7.10
2018-07-25T12:29:08.122Z,4.90
2018-07-25T12:31:35.157Z,5.20
2018-07-25T12:34:02.162Z,5.23
2018-07-25T12:36:29.195Z,5.43
2018-07-25T12:38:56.201Z,5.50
2018-07-25T12:41:23.214Z,5.00
2018-07-25T12:43:50.229Z,4.97
2018-07-25T12:46:17.578Z,5.53
2018-07-25T12:48:44.645Z,4.83
2018-07-25T12:51:11.678Z,5.77
2018-07-25T12:53:38.968Z,5.00
2018-07-25T12:56:05.973Z,4.70
2018-07-25T12:58:33.228Z,4.80
2018-07-25T13:01:00.220Z,4.70
2018-07-25T13:03:27.220Z,5.40
2018-07-25T13:05:54.201Z,5.30
2018-07-25T13:08:21.217Z,5.40
2018-07-25T13:10:48.292Z,4.93
2018-07-25T13:13:15.322Z,5.30
2018-07-25T13:15:42.337Z,5.30
2018-07-25T13:18:10.097Z,4.40
2018-07-25T13:20:37.150Z,5.70
2018-07-25T13:23:04.232Z,4.90
2018-07-25T13:25:31.313Z,4.80
2018-07-25T13:27:58.313Z,6.73
2018-07-25T13:30:25.297Z,6.20
2018-07-25T13:32:52.328Z,4.80
2018-07-25T13:35:19.356Z,5.20
2018-07-25T13:37:46.605Z,6.80
2018-07-25T13:40:13.649Z,4.80
2018-07-25T13:42:40.705Z,5.23
2018-07-25T13:45:07.709Z,4.83
2018-07-25T13:47:34.778Z,5.73
2018-07-25T13:50:01.788Z,4.90
2018-07-25T13:52:28.933Z,4.23
2018-07-25T13:54:55.951Z,4.60
2018-07-25T13:57:24.103Z,5.23
2018-07-25T13:59:51.192Z,4.60
2018-07-25T14:02:18.416Z,5.37
2018-07-25T14:04:45.416Z,4.77
2018-07-25T14:07:12.606Z,5.10
2018-07-25T14:09:39.657Z,5.40
2018-07-25T14:12:06.756Z,5.77
2018-07-25T14:14:33.718Z,4.43
2018-07-25T14:17:00.869Z,5.47
2018-07-25T14:19:27.897Z,5.00
2018-07-25T14:21:54.901Z,5.10
2018-07-25T14:24:21.955Z,6.50
2018-07-25T14:26:49.019Z,5.07
2018-07-25T14:29:15.991Z,5.20
2018-07-25T14:31:43.934Z,5.03
2018-07-25T14:34:10.941Z,4.20
2018-07-25T14:36:37.921Z,4.70
2018-07-25T14:39:07.689Z,5.90
2018-07-25T14:41:34.665Z,7.00
2018-07-25T14:44:01.693Z,6.00
2018-07-25T14:46:28.693Z,7.00
2018-07-25T14:48:55.756Z,5.67
2018-07-25T14:51:22.916Z,7.20
2018-07-25T14:53:49.857Z,6.30
2018-07-25T14:56:16.897Z,5.70
2018-07-25T14:58:43.917Z,8.80
2018-07-25T15:01:11.017Z,8.30
2018-07-25T15:03:38.073Z,5.60
2018-07-25T15:06:05.104Z,5.23
2018-07-25T15:08:32.148Z,6.20
2018-07-25T15:10:59.372Z,5.83
2018-07-25T15:13:26.389Z,6.00
2018-07-25T15:15:53.386Z,5.43
2018-07-25T15:18:20.409Z,9.77
2018-07-25T15:20:47.381Z,5.53
2018-07-25T15:23:24.849Z,4.10
2018-07-25T15:25:51.893Z,8.13
2018-07-25T15:28:18.942Z,5.77
2018-07-25T15:30:45.939Z,4.93
2018-07-25T15:33:12.969Z,7.70
2018-07-25T15:35:39.948Z,4.40
2018-07-25T15:38:06.989Z,7.43
2018-07-25T15:40:33.981Z,5.87
2018-07-25T15:43:00.988Z,6.83
2018-07-25T15:45:27.985Z,4.53
2018-07-25T15:47:55.349Z,4.13
2018-07-25T15:50:22.398Z,4.80
2018-07-25T15:52:49.450Z,5.20
2018-07-25T15:55:16.841Z,4.97
2018-07-25T15:57:43.885Z,5.03
2018-07-25T16:00:11.166Z,6.53
2018-07-25T16:02:38.199Z,5.70
2018-07-25T16:05:05.196Z,5.30
2018-07-25T16:07:32.182Z,4.63
2018-07-25T16:09:59.185Z,6.20
2018-07-25T16:12:26.160Z,5.83
2018-07-25T16:14:53.217Z,6.17
2018-07-25T16:17:20.349Z,6.23
2018-07-25T16:19:47.433Z,6.23
2018-07-25T16:22:14.517Z,6.70
2018-07-25T16:24:41.745Z,5.17
2018-07-25T16:27:09.540Z,6.90
2018-07-25T16:29:36.569Z,5.03
2018-07-25T16:32:03.616Z,5.83
2018-07-25T16:34:30.644Z,4.10
2018-07-25T16:36:57.657Z,6.27
2018-07-25T16:39:24.676Z,5.60
2018-07-25T16:44:31.261Z,4.30
2018-07-25T16:46:58.241Z,4.30
2018-07-25T16:49:25.281Z,3.83
2018-07-25T16:51:52.253Z,3.83
2018-07-25T16:54:19.300Z,4.67
2018-07-25T16:56:46.351Z,3.90
2018-07-25T16:59:13.441Z,4.47
2018-07-25T17:01:40.462Z,4.40
2018-07-25T17:04:07.456Z,5.40
2018-07-25T17:06:34.448Z,5.67
2018-07-25T17:09:01.493Z,5.50
2018-07-25T17:11:28.484Z,4.70
2018-07-25T17:13:55.488Z,4.53
2018-07-25T17:16:22.549Z,6.60
2018-07-25T17:18:49.529Z,8.60
2018-07-25T17:21:16.602Z,5.90
2018-07-25T17:23:43.613Z,4.10
2018-07-25T17:26:10.852Z,5.00
2018-07-25T17:28:37.898Z,5.07
2018-07-25T17:31:05.478Z,5.93
2018-07-25T17:33:32.465Z,4.80
2018-07-25T17:35:59.469Z,5.53
2018-07-25T17:38:26.456Z,5.30
2018-07-25T17:40:53.509Z,5.43
2018-07-25T17:43:20.493Z,6.27
2018-07-25T17:45:47.541Z,5.73
2018-07-25T17:48:14.570Z,5.57
2018-07-25T17:50:41.733Z,9.07
2018-07-25T17:53:08.733Z,5.50
2018-07-25T17:55:35.760Z,5.20
2018-07-25T17:58:02.757Z,5.20
2018-07-25T18:00:30.037Z,5.73
2018-07-25T18:02:57.126Z,6.37
2018-07-25T18:05:24.165Z,5.53
2018-07-25T18:07:51.153Z,7.90
2018-07-25T18:10:18.221Z,5.90
2018-07-25T18:12:45.244Z,5.70
2018-07-25T18:15:12.293Z,5.77
2018-07-25T18:17:39.276Z,5.53
2018-07-25T18:20:06.581Z,5.30
2018-07-25T18:22:33.597Z,7.00
2018-07-25T18:25:00.944Z,6.87
2018-07-25T18:27:27.993Z,5.07
2018-07-25T18:29:55.006Z,5.10
2018-07-25T18:32:22.025Z,4.47
2018-07-25T18:34:49.053Z,4.40
2018-07-25T18:37:16.026Z,3.80
2018-07-25T18:39:43.072Z,4.73
2018-07-25T18:42:10.161Z,4.30
2018-07-25T18:44:37.161Z,4.63
2018-07-25T18:47:04.205Z,6.50
2018-07-25T18:49:31.190Z,4.33
2018-07-25T18:51:58.253Z,4.23
2018-07-25T18:54:25.248Z,7.93
2018-07-25T18:56:52.260Z,3.60
2018-07-25T18:59:19.249Z,4.00
2018-07-25T19:01:46.306Z,4.27
2018-07-25T19:04:13.313Z,4.80
2018-07-25T19:06:40.641Z,4.30
2018-07-25T19:09:12.157Z,5.07
2018-07-25T19:11:39.249Z,7.40
2018-07-25T19:14:11.889Z,4.47
2018-07-25T19:16:38.902Z,5.10
2018-07-25T19:19:05.869Z,6.50
2018-07-25T19:21:32.898Z,4.63
2018-07-25T19:23:59.875Z,7.47
2018-07-25T19:26:26.949Z,4.70
2018-07-25T19:28:53.951Z,8.67
2018-07-25T19:31:20.924Z,6.57
2018-07-25T19:33:47.881Z,4.73
2018-07-25T19:36:14.873Z,4.20
2018-07-25T19:38:41.849Z,5.30
2018-07-25T19:41:08.862Z,5.73
2018-07-25T19:43:35.849Z,8.10
2018-07-25T19:46:02.877Z,5.67
2018-07-25T19:48:29.860Z,8.43
2018-07-25T19:50:56.873Z,6.00
2018-07-25T19:53:23.908Z,7.80
2018-07-25T19:55:50.881Z,5.17
2018-07-25T19:58:17.864Z,8.20
2018-07-25T20:00:44.830Z,7.37
2018-07-25T20:03:11.841Z,6.30
2018-07-25T20:05:38.825Z,6.07
2018-07-25T20:08:05.889Z,5.70
2018-07-25T20:10:32.890Z,6.07
2018-07-25T20:12:59.869Z,6.53
2018-07-25T20:15:32.608Z,6.97
2018-07-25T20:17:59.678Z,6.50
2018-07-25T20:20:26.624Z,5.93
2018-07-25T20:22:53.657Z,5.80
2018-07-25T20:25:20.751Z,7.63
2018-07-25T20:27:47.796Z,11.77
2018-07-25T20:30:14.758Z,7.70
2018-07-25T20:32:41.744Z,6.07
2018-07-25T20:35:08.729Z,8.03
2018-07-25T20:37:35.886Z,6.03
2018-07-25T20:40:03.103Z,6.70
2018-07-25T20:42:30.105Z,6.07
2018-07-25T20:44:57.100Z,9.80
2018-07-25T20:47:24.106Z,6.93
2018-07-25T20:49:51.097Z,6.13
2018-07-25T20:52:18.153Z,6.47
2018-07-25T20:54:45.144Z,6.00
2018-07-25T20:57:12.366Z,10.23
2018-07-25T20:59:39.339Z,8.47
2018-07-25T21:02:06.760Z,7.20
2018-07-25T21:04:33.754Z,6.40
2018-07-25T21:07:00.738Z,7.73
2018-07-25T21:09:27.757Z,7.53
2018-07-25T21:11:54.748Z,6.50
2018-07-25T21:14:21.818Z,7.33
2018-07-25T21:16:48.857Z,6.90
2018-07-25T21:19:15.861Z,8.50
2018-07-25T21:21:42.873Z,6.87
2018-07-25T21:24:09.847Z,7.30
2018-07-25T21:26:36.901Z,7.67
2018-07-25T21:29:03.969Z,7.07
2018-07-25T21:31:30.953Z,10.93
2018-07-25T21:33:57.949Z,10.53
2018-07-25T21:36:25.077Z,10.50
2018-07-25T21:38:52.084Z,8.07
2018-07-25T21:41:19.040Z,6.70
2018-07-25T21:43:46.021Z,10.00
2018-07-25T21:46:12.999Z,8.23
2018-07-25T21:48:39.985Z,7.40
2018-07-25T21:51:07.025Z,7.50
2018-07-25T21:53:34.010Z,7.73
2018-07-25T21:56:00.973Z,8.80
2018-07-25T21:58:28.041Z,7.93
2018-07-25T22:00:57.617Z,7.23
2018-07-25T22:03:24.753Z,6.03
2018-07-25T22:05:51.729Z,6.83
2018-07-25T22:08:18.726Z,7.83
2018-07-25T22:10:45.773Z,8.30
2018-07-25T22:13:12.809Z,6.37
2018-07-25T22:15:39.796Z,6.90
2018-07-25T22:18:06.877Z,6.80
2018-07-25T22:20:33.885Z,7.33
2018-07-25T22:23:01.087Z,7.00
2018-07-25T22:25:28.085Z,6.97
2018-07-25T22:27:55.101Z,6.30
2018-07-25T22:30:22.163Z,7.60
2018-07-25T22:32:49.098Z,7.97
2018-07-25T22:35:16.073Z,8.50
2018-07-25T22:37:43.042Z,8.40
2018-07-25T22:40:10.081Z,8.77
2018-07-25T22:42:37.309Z,7.77
2018-07-25T22:45:04.373Z,7.57
2018-07-25T22:47:31.358Z,8.10
2018-07-25T22:49:58.355Z,8.00
2018-07-25T22:52:25.381Z,6.90
2018-07-25T22:54:52.333Z,7.20
2018-07-25T22:57:19.316Z,9.63
2018-07-25T22:59:46.284Z,7.30
2018-07-25T23:02:13.272Z,8.63
2018-07-25T23:04:40.292Z,8.13
2018-07-25T23:07:07.293Z,7.93
2018-07-25T23:09:34.290Z,7.50
2018-07-25T23:12:01.286Z,9.50
2018-07-25T23:14:28.258Z,8.70
2018-07-25T23:16:55.232Z,7.23
2018-07-25T23:19:22.237Z,8.03
2018-07-25T23:21:49.209Z,7.33
2018-07-25T23:24:16.248Z,8.47
2018-07-25T23:26:43.205Z,7.07
2018-07-25T23:29:10.809Z,7.23
2018-07-25T23:31:37.786Z,7.67
2018-07-25T23:34:04.797Z,8.53
2018-07-25T23:36:31.819Z,7.77
2018-07-25T23:38:58.793Z,9.00
2018-07-25T23:41:25.760Z,19.27
2018-07-25T23:43:52.763Z,14.73
2018-07-25T23:46:19.749Z,14.33
2018-07-25T23:48:46.765Z,12.30
2018-07-25T23:51:13.876Z,13.50
2018-07-25T23:53:40.953Z,11.20
2018-07-25T23:56:07.924Z,12.63
2018-07-25T23:58:34.900Z,15.23
